createdAt,value
2023-04-17T00:00:24.128Z,6.59
2023-04-17T00:02:53.379Z,6.59
2023-04-17T00:08:15.493Z,6.61
2023-04-17T00:10:47.141Z,6.61
2023-04-17T00:13:24.344Z,6.63
2023-04-17T00:15:52.446Z,6.62
2023-04-17T00:18:20.821Z,6.62
2023-04-17T00:20:49.041Z,6.62
2023-04-17T00:23:17.451Z,6.62
2023-04-17T00:25:45.749Z,6.63
2023-04-17T00:28:14.302Z,6.64
2023-04-17T00:30:42.507Z,6.66
2023-04-17T00:33:10.737Z,6.68
2023-04-17T00:35:39.003Z,6.69
2023-04-17T00:38:09.326Z,6.71
2023-04-17T00:40:38.244Z,6.72
2023-04-17T00:43:06.763Z,6.71
2023-04-17T00:45:35.718Z,6.70
2023-04-17T00:48:04.996Z,6.67
2023-04-17T00:50:33.344Z,6.64
2023-04-17T00:53:01.615Z,6.62
2023-04-17T00:55:29.793Z,6.62
2023-04-17T00:57:58.036Z,6.62
2023-04-17T01:00:26.355Z,6.64
2023-04-17T01:02:56.864Z,6.66
2023-04-17T01:05:28.166Z,6.68
2023-04-17T01:07:57.535Z,6.70
2023-04-17T01:10:25.686Z,6.70
2023-04-17T01:13:04.090Z,6.71
2023-04-17T01:15:32.442Z,6.72
2023-04-17T01:18:00.709Z,6.73
2023-04-17T01:20:31.321Z,6.75
2023-04-17T01:22:59.672Z,6.74
2023-04-17T01:25:28.160Z,6.74
2023-04-17T01:27:57.164Z,6.74
2023-04-17T01:30:25.604Z,6.74
2023-04-17T01:33:02.364Z,6.74
2023-04-17T01:35:30.678Z,6.73
2023-04-17T01:37:59.308Z,6.73
2023-04-17T01:40:27.480Z,6.73
2023-04-17T01:42:55.678Z,6.75
2023-04-17T01:45:23.761Z,6.77
2023-04-17T01:47:52.079Z,6.76
2023-04-17T01:50:20.426Z,6.76
2023-04-17T01:52:48.807Z,6.77
2023-04-17T01:55:18.263Z,6.79
2023-04-17T01:57:46.536Z,6.81
2023-04-17T02:00:15.022Z,6.81
2023-04-17T02:02:46.732Z,6.81
2023-04-17T02:05:14.961Z,6.81
2023-04-17T02:07:45.767Z,6.82
2023-04-17T02:10:14.113Z,6.83
2023-04-17T02:12:42.862Z,6.85
2023-04-17T02:15:11.342Z,6.86
2023-04-17T02:17:39.895Z,6.87
2023-04-17T02:20:09.131Z,6.86
2023-04-17T02:22:37.825Z,6.85
2023-04-17T02:25:06.138Z,6.85
2023-04-17T02:27:34.935Z,6.83
2023-04-17T02:30:03.886Z,6.83
2023-04-17T02:32:33.846Z,6.84
2023-04-17T02:35:02.334Z,6.85
2023-04-17T02:37:30.714Z,6.85
2023-04-17T02:39:58.913Z,6.85
2023-04-17T02:42:27.107Z,6.87
2023-04-17T02:44:55.352Z,6.89
2023-04-17T02:47:23.761Z,6.88
2023-04-17T02:49:52.043Z,6.88
2023-04-17T02:52:20.199Z,6.88
2023-04-17T02:54:48.382Z,6.88
2023-04-17T02:57:18.409Z,6.89
2023-04-17T02:59:46.627Z,6.89
2023-04-17T03:02:14.867Z,6.90
2023-04-17T03:04:43.330Z,6.91
2023-04-17T03:07:11.866Z,6.92
2023-04-17T03:09:40.245Z,6.92
2023-04-17T03:12:08.544Z,6.93
2023-04-17T03:14:36.644Z,6.93
2023-04-17T03:17:04.776Z,6.93
2023-04-17T03:19:33.388Z,6.93
2023-04-17T03:22:04.524Z,6.94
2023-04-17T03:24:32.990Z,6.94
2023-04-17T03:27:03.589Z,6.96
2023-04-17T03:29:38.026Z,6.99
2023-04-17T03:32:06.512Z,7.01
2023-04-17T03:34:35.512Z,7.04
2023-04-17T03:37:03.718Z,7.06
2023-04-17T03:39:32.679Z,7.08
2023-04-17T03:42:02.675Z,7.09
2023-04-17T03:44:31.268Z,7.11
2023-04-17T03:46:59.439Z,7.12
2023-04-17T03:49:27.688Z,7.14
2023-04-17T03:51:57.506Z,7.15
2023-04-17T03:54:26.243Z,7.18
2023-04-17T03:56:56.250Z,7.20
2023-04-17T03:59:24.899Z,7.22
2023-04-17T04:01:54.337Z,7.25
2023-04-17T04:04:24.719Z,7.27
2023-04-17T04:07:01.682Z,7.31
2023-04-17T04:09:30.611Z,7.33
2023-04-17T04:11:59.307Z,7.35
2023-04-17T04:14:27.614Z,7.36
2023-04-17T04:16:56.376Z,7.38
2023-04-17T04:19:24.452Z,7.40
2023-04-17T04:21:53.733Z,7.41
2023-04-17T04:24:22.721Z,7.43
2023-04-17T04:26:52.150Z,7.43
2023-04-17T04:29:25.723Z,7.44
2023-04-17T04:31:59.281Z,7.46
2023-04-17T04:34:31.309Z,7.49
2023-04-17T04:36:59.411Z,7.50
2023-04-17T04:39:32.168Z,7.53
2023-04-17T04:42:06.327Z,7.56
2023-04-17T04:44:44.427Z,7.59
2023-04-17T04:47:12.825Z,7.62
2023-04-17T04:49:42.066Z,7.65
2023-04-17T04:52:11.042Z,7.66
2023-04-17T04:54:39.268Z,7.68
2023-04-17T04:57:07.374Z,7.69
2023-04-17T04:59:38.867Z,7.71
2023-04-17T05:02:33.853Z,7.73
2023-04-17T05:05:02.724Z,7.74
2023-04-17T05:07:32.459Z,7.75
2023-04-17T05:10:01.265Z,7.77
2023-04-17T05:12:30.864Z,7.79
2023-04-17T05:14:59.587Z,7.79
2023-04-17T05:17:28.914Z,7.78
2023-04-17T05:19:57.110Z,7.78
2023-04-17T05:22:25.862Z,7.78
2023-04-17T05:25:02.460Z,7.80
2023-04-17T05:27:31.047Z,7.83
2023-04-17T05:29:59.184Z,7.86
2023-04-17T05:32:27.408Z,7.89
2023-04-17T05:34:59.185Z,7.94
2023-04-17T05:37:28.530Z,8.00
2023-04-17T05:39:56.979Z,8.05
2023-04-17T05:42:25.158Z,8.11
2023-04-17T05:44:53.859Z,8.17
2023-04-17T05:47:22.130Z,8.23
2023-04-17T05:49:52.771Z,8.31
2023-04-17T05:52:21.418Z,8.41
2023-04-17T05:54:49.838Z,8.49
2023-04-17T05:57:18.931Z,8.57
2023-04-17T05:59:49.432Z,8.67
2023-04-17T06:02:17.925Z,8.74
2023-04-17T06:04:46.982Z,8.75
2023-04-17T06:07:15.354Z,8.76
2023-04-17T06:09:43.484Z,8.75
2023-04-17T06:12:16.433Z,8.74
2023-04-17T06:14:45.916Z,8.75
2023-04-17T06:17:15.988Z,8.77
2023-04-17T06:19:44.231Z,8.79
2023-04-17T06:22:12.375Z,8.80
2023-04-17T06:24:40.569Z,8.82
2023-04-17T06:27:08.698Z,8.81
2023-04-17T06:29:37.478Z,8.82
2023-04-17T06:32:06.512Z,8.80
2023-04-17T06:34:41.385Z,8.80
2023-04-17T06:37:14.972Z,8.80
2023-04-17T06:39:43.200Z,8.77
2023-04-17T06:42:11.888Z,8.72
2023-04-17T06:44:40.863Z,8.70
2023-04-17T06:47:13.761Z,8.69
2023-04-17T06:49:42.001Z,8.69
2023-04-17T06:52:10.257Z,8.65
2023-04-17T06:54:38.589Z,8.63
2023-04-17T06:57:10.041Z,8.61
2023-04-17T06:59:38.732Z,8.61
2023-04-17T07:02:06.850Z,8.64
2023-04-17T07:04:35.026Z,8.69
2023-04-17T07:07:03.352Z,8.73
2023-04-17T07:09:31.642Z,8.77
2023-04-17T07:11:59.924Z,8.83
2023-04-17T07:14:28.154Z,8.87
2023-04-17T07:16:56.316Z,8.88
2023-04-17T07:19:24.603Z,8.94
2023-04-17T07:21:53.398Z,9.00
2023-04-17T07:24:21.508Z,9.01
2023-04-17T07:26:49.790Z,9.00
2023-04-17T07:29:18.065Z,9.00
2023-04-17T07:31:46.440Z,9.02
2023-04-17T07:34:14.531Z,9.07
2023-04-17T07:36:42.679Z,9.12
2023-04-17T07:39:10.998Z,9.18
2023-04-17T07:41:39.403Z,9.23
2023-04-17T07:44:07.499Z,9.21
2023-04-17T07:46:36.071Z,9.15
2023-04-17T07:49:04.297Z,9.06
2023-04-17T07:51:33.035Z,8.98
2023-04-17T07:54:01.654Z,8.89
2023-04-17T07:56:31.981Z,8.87
2023-04-17T07:59:00.693Z,8.87
2023-04-17T08:01:29.088Z,8.89
2023-04-17T08:03:58.583Z,8.91
2023-04-17T08:06:27.457Z,8.91
2023-04-17T08:08:55.724Z,8.90
2023-04-17T08:11:23.811Z,8.89
2023-04-17T08:13:52.054Z,8.90
2023-04-17T08:16:20.308Z,8.92
2023-04-17T08:18:48.459Z,8.91
2023-04-17T08:21:16.595Z,8.91
2023-04-17T08:23:44.977Z,8.95
2023-04-17T08:26:13.234Z,9.00
2023-04-17T08:28:41.475Z,9.06
2023-04-17T08:31:11.090Z,9.14
2023-04-17T08:33:39.548Z,9.21
2023-04-17T08:36:10.000Z,9.28
2023-04-17T08:38:38.197Z,9.33
2023-04-17T08:41:08.818Z,9.41
2023-04-17T08:43:36.973Z,9.51
2023-04-17T08:46:05.349Z,9.57
2023-04-17T08:48:33.602Z,9.60
2023-04-17T08:51:03.053Z,9.59
2023-04-17T08:53:31.230Z,9.53
2023-04-17T08:56:03.572Z,9.47
2023-04-17T08:58:33.446Z,9.42
2023-04-17T09:01:12.095Z,9.37
2023-04-17T09:03:43.962Z,9.34
2023-04-17T09:06:12.926Z,9.33
2023-04-17T09:09:01.743Z,9.32
2023-04-17T09:11:30.625Z,9.32
2023-04-17T09:13:58.882Z,9.33
2023-04-17T09:16:28.641Z,9.33
2023-04-17T09:19:07.033Z,9.33
2023-04-17T09:21:35.174Z,9.38
2023-04-17T09:24:05.484Z,9.43
2023-04-17T09:26:33.603Z,9.50
2023-04-17T09:29:12.120Z,9.53
2023-04-17T09:31:42.518Z,9.57
2023-04-17T09:34:13.885Z,9.59
2023-04-17T09:36:43.317Z,9.56
2023-04-17T09:39:24.117Z,9.49
2023-04-17T09:42:06.542Z,9.45
2023-04-17T09:44:36.931Z,9.46
2023-04-17T09:47:05.298Z,9.44
2023-04-17T09:49:42.308Z,9.48
2023-04-17T09:52:12.154Z,9.56
2023-04-17T09:54:40.339Z,9.63
2023-04-17T09:57:09.457Z,9.68
2023-04-17T09:59:39.851Z,9.73
2023-04-17T10:02:09.596Z,9.81
2023-04-17T10:04:40.837Z,9.85
2023-04-17T10:07:09.181Z,9.88
2023-04-17T10:09:37.633Z,9.88
2023-04-17T10:12:05.837Z,9.84
2023-04-17T10:14:37.680Z,9.83
2023-04-17T10:17:25.107Z,9.89
2023-04-17T10:19:53.490Z,9.98
2023-04-17T10:22:21.891Z,10.07
2023-04-17T10:24:54.045Z,10.14
2023-04-17T10:27:25.191Z,10.21
2023-04-17T10:30:00.414Z,10.26
2023-04-17T10:32:29.351Z,10.31
2023-04-17T10:35:02.104Z,10.36
2023-04-17T10:37:50.308Z,10.42
2023-04-17T10:40:25.992Z,10.47
2023-04-17T10:43:03.663Z,10.51
2023-04-17T10:45:54.506Z,10.57
2023-04-17T10:48:27.247Z,10.65
2023-04-17T10:50:58.520Z,10.72
2023-04-17T10:53:43.419Z,10.79
2023-04-17T10:56:13.474Z,10.87
2023-04-17T10:58:58.916Z,10.94
2023-04-17T11:01:31.913Z,11.00
2023-04-17T11:04:00.491Z,11.07
2023-04-17T11:06:31.462Z,11.16
2023-04-17T11:09:00.041Z,11.27
2023-04-17T11:11:40.372Z,11.38
2023-04-17T11:14:16.918Z,11.51
2023-04-17T11:16:46.831Z,11.61
2023-04-17T11:19:23.271Z,11.71
2023-04-17T11:21:58.678Z,11.81
2023-04-17T11:24:28.527Z,11.89
2023-04-17T11:26:59.894Z,11.97
2023-04-17T11:29:28.596Z,12.05
2023-04-17T11:31:57.195Z,12.12
2023-04-17T11:34:26.222Z,12.17
2023-04-17T11:36:55.077Z,12.21
2023-04-17T11:39:24.191Z,12.25
2023-04-17T11:41:52.644Z,12.31
2023-04-17T11:44:21.262Z,12.39
2023-04-17T11:46:53.040Z,12.46
2023-04-17T11:49:30.696Z,12.53
2023-04-17T11:52:02.162Z,12.58
2023-04-17T11:54:34.666Z,12.62
2023-04-17T11:57:12.986Z,12.64
2023-04-17T11:59:46.251Z,12.65
2023-04-17T12:02:15.517Z,12.67
2023-04-17T12:04:43.982Z,12.67
2023-04-17T12:07:21.460Z,12.66
2023-04-17T12:09:59.065Z,12.66
2023-04-17T12:12:27.215Z,12.67
2023-04-17T12:14:55.547Z,12.71
2023-04-17T12:17:23.805Z,12.77
2023-04-17T12:19:52.190Z,12.82
2023-04-17T12:22:20.534Z,12.87
2023-04-17T12:24:48.726Z,12.93
2023-04-17T12:27:17.523Z,13.01
2023-04-17T12:29:45.817Z,13.07
2023-04-17T12:32:16.162Z,13.07
2023-04-17T12:34:44.419Z,13.11
2023-04-17T12:37:12.630Z,13.17
2023-04-17T12:39:40.720Z,13.21
2023-04-17T12:42:08.976Z,13.24
2023-04-17T12:44:37.242Z,13.26
2023-04-17T12:47:05.629Z,13.30
2023-04-17T12:49:35.410Z,13.36
2023-04-17T12:52:04.190Z,13.42
2023-04-17T12:54:33.305Z,13.46
2023-04-17T12:57:01.863Z,13.51
2023-04-17T12:59:30.062Z,13.55
2023-04-17T13:01:58.332Z,13.57
2023-04-17T13:04:26.803Z,13.56
2023-04-17T13:06:55.043Z,13.58
2023-04-17T13:09:23.500Z,13.58
2023-04-17T13:11:51.770Z,13.54
2023-04-17T13:14:19.960Z,13.53
2023-04-17T13:16:50.649Z,13.51
2023-04-17T13:19:19.107Z,13.50
2023-04-17T13:38:56.312Z,13.36
2023-04-17T13:41:24.603Z,13.40
2023-04-17T13:43:53.845Z,13.44
2023-04-17T13:46:22.334Z,13.49
2023-04-17T13:48:51.358Z,13.52
2023-04-17T13:51:19.533Z,13.53
2023-04-17T13:53:47.868Z,13.52
2023-04-17T13:56:16.154Z,13.50
2023-04-17T13:58:44.682Z,13.48
2023-04-17T14:01:14.138Z,13.45
2023-04-17T14:03:45.371Z,13.42
2023-04-17T14:06:14.440Z,13.40
2023-04-17T14:08:44.368Z,13.37
2023-04-17T14:11:13.222Z,13.37
2023-04-17T14:13:41.478Z,13.39
2023-04-17T14:16:09.644Z,13.40
2023-04-17T14:18:37.827Z,13.38
2023-04-17T14:21:06.190Z,13.38
2023-04-17T14:23:34.588Z,13.37
2023-04-17T14:26:02.764Z,13.38
2023-04-17T14:28:30.959Z,13.39
2023-04-17T14:30:59.271Z,13.41
2023-04-17T14:33:27.482Z,13.42
2023-04-17T14:35:57.008Z,13.44
2023-04-17T14:38:25.640Z,13.44
2023-04-17T14:40:53.867Z,13.42
2023-04-17T14:43:22.482Z,13.41
2023-04-17T14:45:51.468Z,13.39
2023-04-17T14:48:21.069Z,13.38
2023-04-17T14:50:49.915Z,13.35
2023-04-17T14:53:21.231Z,13.34
2023-04-17T14:55:50.145Z,13.34
2023-04-17T14:58:18.781Z,13.34
2023-04-17T15:00:47.079Z,13.34
2023-04-17T15:03:15.369Z,13.33
2023-04-17T15:05:45.646Z,13.33
2023-04-17T15:08:14.141Z,13.32
2023-04-17T15:10:50.832Z,13.32
2023-04-17T15:13:20.227Z,13.31
2023-04-17T15:15:48.797Z,13.30
2023-04-17T15:18:17.824Z,13.29
2023-04-17T15:20:46.467Z,13.27
2023-04-17T15:23:17.623Z,13.24
2023-04-17T15:25:45.857Z,13.23
2023-04-17T15:28:13.964Z,13.21
2023-04-17T15:30:42.215Z,13.20
2023-04-17T15:33:10.624Z,13.20
2023-04-17T15:35:39.047Z,13.18
2023-04-17T15:38:07.454Z,13.16
2023-04-17T15:40:35.834Z,13.14
2023-04-17T15:43:03.996Z,13.11
2023-04-17T15:45:33.416Z,13.10
2023-04-17T15:48:01.908Z,13.10
2023-04-17T15:50:30.543Z,13.09
2023-04-17T15:52:58.834Z,13.07
2023-04-17T15:55:27.268Z,13.05
2023-04-17T15:57:56.149Z,13.04
2023-04-17T16:00:24.505Z,13.02
2023-04-17T16:02:53.048Z,13.00
2023-04-17T16:05:21.986Z,12.97
2023-04-17T16:07:50.323Z,12.94
2023-04-17T16:10:19.096Z,12.92
2023-04-17T16:12:47.409Z,12.89
2023-04-17T16:15:18.968Z,12.87
2023-04-17T16:17:48.797Z,12.85
2023-04-17T16:20:17.373Z,12.82
2023-04-17T16:22:45.578Z,12.79
2023-04-17T16:25:13.753Z,12.75
2023-04-17T16:27:42.039Z,12.72
2023-04-17T16:30:10.669Z,12.69
2023-04-17T16:32:39.438Z,12.65
2023-04-17T16:35:08.025Z,12.61
2023-04-17T16:37:36.545Z,12.57
2023-04-17T16:40:05.509Z,12.53
2023-04-17T16:42:33.930Z,12.49
2023-04-17T16:45:02.147Z,12.45
2023-04-17T16:47:30.655Z,12.43
2023-04-17T16:49:58.965Z,12.39
2023-04-17T16:52:27.489Z,12.35
2023-04-17T16:54:55.686Z,12.30
2023-04-17T16:57:24.003Z,12.25
2023-04-17T16:59:52.217Z,12.21
2023-04-17T17:02:23.379Z,12.17
2023-04-17T17:04:52.107Z,12.11
2023-04-17T17:07:20.643Z,12.05
2023-04-17T17:09:49.009Z,12.00
2023-04-17T17:12:17.234Z,11.95
2023-04-17T17:14:45.512Z,11.91
2023-04-17T17:17:13.918Z,11.87
2023-04-17T17:19:41.967Z,11.81
2023-04-17T17:22:10.118Z,11.75
2023-04-17T17:24:38.558Z,11.71
2023-04-17T17:27:06.965Z,11.68
2023-04-17T17:29:35.536Z,11.65
2023-04-17T17:32:04.076Z,11.61
2023-04-17T17:34:32.650Z,11.59
2023-04-17T17:37:00.943Z,11.57
2023-04-17T17:39:29.315Z,11.54
2023-04-17T17:41:57.916Z,11.50
2023-04-17T17:44:26.252Z,11.47
2023-04-17T17:46:54.509Z,11.43
2023-04-17T17:49:22.803Z,11.41
2023-04-17T17:51:50.992Z,11.38
2023-04-17T17:54:19.326Z,11.36
2023-04-17T17:56:48.013Z,11.38
2023-04-17T17:59:16.186Z,11.39
2023-04-17T18:01:44.411Z,11.38
2023-04-17T18:04:12.793Z,11.36
2023-04-17T18:06:41.733Z,11.32
2023-04-17T18:09:09.798Z,11.28
2023-04-17T18:11:38.049Z,11.24
2023-04-17T18:14:06.839Z,11.21
2023-04-17T18:16:37.295Z,11.18
2023-04-17T18:19:05.488Z,11.14
2023-04-17T18:21:34.694Z,11.12
2023-04-17T18:24:02.911Z,11.11
2023-04-17T18:26:31.678Z,11.09
2023-04-17T18:29:00.050Z,11.08
2023-04-17T18:31:28.528Z,11.07
2023-04-17T18:33:56.988Z,11.05
2023-04-17T18:36:26.406Z,11.02
2023-04-17T18:38:54.629Z,10.99
2023-04-17T18:41:23.092Z,10.97
2023-04-17T18:43:51.195Z,10.95
2023-04-17T18:46:19.592Z,10.93
2023-04-17T18:48:47.836Z,10.93
2023-04-17T18:51:16.062Z,10.92
2023-04-17T18:53:44.211Z,10.92
2023-04-17T18:56:13.818Z,10.91
2023-04-17T18:58:42.191Z,10.89
2023-04-17T19:01:10.803Z,10.86
2023-04-17T19:03:39.564Z,10.83
2023-04-17T19:06:07.963Z,10.80
2023-04-17T19:08:36.906Z,10.79
2023-04-17T19:11:05.698Z,10.78
2023-04-17T19:13:34.652Z,10.79
2023-04-17T19:16:03.050Z,10.79
2023-04-17T19:18:31.481Z,10.79
2023-04-17T19:20:59.687Z,10.77
2023-04-17T19:23:27.934Z,10.75
2023-04-17T19:25:56.698Z,10.75
2023-04-17T19:28:25.489Z,10.77
2023-04-17T19:30:53.749Z,10.78
2023-04-17T19:33:23.092Z,10.79
2023-04-17T19:35:52.432Z,10.80
2023-04-17T19:38:21.505Z,10.80
2023-04-17T19:41:15.438Z,10.81
2023-04-17T19:43:47.255Z,10.81
2023-04-17T19:46:15.608Z,10.81
2023-04-17T19:48:44.925Z,10.81
2023-04-17T19:51:13.512Z,10.80
2023-04-17T19:53:43.115Z,10.80
2023-04-17T19:56:11.377Z,10.80
2023-04-17T19:58:40.395Z,10.81
2023-04-17T20:01:08.630Z,10.80
2023-04-17T20:03:39.462Z,10.83
2023-04-17T20:06:07.936Z,10.84
2023-04-17T20:08:36.581Z,10.85
2023-04-17T20:11:06.499Z,10.85
2023-04-17T20:13:34.834Z,10.85
2023-04-17T20:16:02.954Z,10.83
2023-04-17T20:18:31.521Z,10.82
2023-04-17T20:21:01.512Z,10.82
2023-04-17T20:23:29.825Z,10.81
2023-04-17T20:25:58.081Z,10.81
2023-04-17T20:28:28.917Z,10.80
2023-04-17T20:30:57.217Z,10.79
2023-04-17T20:33:25.584Z,10.78
2023-04-17T20:35:53.854Z,10.77
2023-04-17T20:38:22.025Z,10.78
2023-04-17T20:40:50.318Z,10.80
2023-04-17T20:43:18.490Z,10.80
2023-04-17T20:45:48.463Z,10.81
2023-04-17T20:48:16.743Z,10.81
2023-04-17T20:50:44.923Z,10.80
2023-04-17T20:53:13.039Z,10.80
2023-04-17T20:55:41.195Z,10.80
2023-04-17T20:58:09.466Z,10.79
2023-04-17T21:00:44.453Z,10.82
2023-04-17T21:03:15.853Z,10.85
2023-04-17T21:05:44.672Z,10.87
2023-04-17T21:08:13.303Z,10.88
2023-04-17T21:10:41.993Z,10.91
2023-04-17T21:13:10.164Z,10.94
2023-04-17T21:15:38.335Z,10.96
2023-04-17T21:18:06.564Z,10.97
2023-04-17T21:20:34.964Z,10.99
2023-04-17T21:23:03.121Z,10.98
2023-04-17T21:25:31.304Z,10.98
2023-04-17T21:27:59.440Z,10.97
2023-04-17T21:30:27.649Z,10.95
2023-04-17T21:32:56.197Z,10.93
2023-04-17T21:35:24.378Z,10.91
2023-04-17T21:37:52.518Z,10.87
2023-04-17T21:40:20.739Z,10.82
2023-04-17T21:42:48.836Z,10.79
2023-04-17T21:45:17.211Z,10.75
2023-04-17T21:47:45.351Z,10.70
2023-04-17T21:50:13.509Z,10.65
2023-04-17T21:52:42.278Z,10.62
2023-04-17T21:55:10.421Z,10.59
2023-04-17T21:57:39.339Z,10.54
2023-04-17T22:00:11.751Z,10.50
2023-04-17T22:02:40.443Z,10.45
2023-04-17T22:05:08.894Z,10.42
2023-04-17T22:07:47.272Z,10.39
2023-04-17T22:10:19.836Z,10.35
2023-04-17T22:12:48.089Z,10.32
2023-04-17T22:15:16.477Z,10.30
2023-04-17T22:17:44.932Z,10.27
2023-04-17T22:20:13.288Z,10.22
2023-04-17T22:22:41.471Z,10.17
2023-04-17T22:25:09.956Z,10.13
2023-04-17T22:27:39.128Z,10.09
2023-04-17T22:30:07.777Z,10.05
2023-04-17T22:32:36.299Z,10.02
2023-04-17T22:35:04.802Z,9.97
2023-04-17T22:37:33.790Z,9.93
2023-04-17T22:40:01.911Z,9.90
2023-04-17T22:42:30.961Z,9.87
2023-04-17T22:44:59.133Z,9.84
2023-04-17T22:47:27.397Z,9.80
2023-04-17T22:49:55.829Z,9.77
2023-04-17T22:52:24.058Z,9.75
2023-04-17T22:54:52.235Z,9.72
2023-04-17T22:57:20.395Z,9.69
2023-04-17T22:59:48.585Z,9.68
2023-04-17T23:02:16.856Z,9.69
2023-04-17T23:04:45.182Z,9.68
2023-04-17T23:07:13.502Z,9.67
2023-04-17T23:09:41.667Z,9.67
2023-04-17T23:12:09.833Z,9.67
2023-04-17T23:14:38.211Z,9.67
2023-04-17T23:17:06.703Z,9.66
2023-04-17T23:19:34.867Z,9.64
2023-04-17T23:22:03.081Z,9.62
2023-04-17T23:24:32.995Z,9.63
2023-04-17T23:27:02.155Z,9.62
2023-04-17T23:29:30.515Z,9.61
2023-04-17T23:31:58.632Z,9.60
2023-04-17T23:34:28.140Z,9.60
2023-04-17T23:36:56.433Z,9.59
2023-04-17T23:39:25.068Z,9.57
2023-04-17T23:41:53.636Z,9.56
2023-04-17T23:44:21.728Z,9.54
2023-04-17T23:46:50.033Z,9.51
2023-04-17T23:49:18.769Z,9.48
2023-04-17T23:51:46.935Z,9.46
2023-04-17T23:54:15.339Z,9.43
2023-04-17T23:56:43.776Z,9.41
2023-04-17T23:59:11.929Z,9.37
